Time;durP1;ratioP1;P1;durP2;ratioP2;P2;SDS_P1;SDS_P2;PMS_P1;PMS_P2;Temp;Humidity;BMP_temperature;BMP_pressure;BME280_temperature;BME280_humidity;BME280_pressure;Samples;Min_cycle;Max_cycle;Signal;HPM_P1;HPM_P2
2022/07/02 00:01:29;;;;;;;4.85;1.13;;;16.90;95.70;;;;;;5125245;27;20048;-75
2022/07/02 00:04:03;;;;;;;2.35;1.42;;;16.80;95.70;;;;;;5122894;27;20441;-75
2022/07/02 00:06:35;;;;;;;1.40;1.02;;;16.80;95.80;;;;;;5121148;27;20059;-75
2022/07/02 00:09:01;;;;;;;1.85;0.95;;;16.80;95.90;;;;;;5123334;27;20308;-75
2022/07/02 00:11:27;;;;;;;7.40;1.70;;;16.80;95.90;;;;;;5121364;27;20040;-75
2022/07/02 00:13:54;;;;;;;2.15;0.88;;;16.80;96.00;;;;;;5124227;27;20039;-75
2022/07/02 00:16:19;;;;;;;3.35;1.02;;;16.70;96.10;;;;;;5124601;27;20078;-75
2022/07/02 00:18:45;;;;;;;4.10;1.02;;;16.70;96.10;;;;;;5107596;27;20046;-74
2022/07/02 00:21:12;;;;;;;2.05;1.08;;;16.70;96.20;;;;;;5122563;27;20047;-75
2022/07/02 00:23:38;;;;;;;2.75;1.08;;;16.70;96.30;;;;;;5125164;27;20957;-75
2022/07/02 00:26:12;;;;;;;2.10;0.90;;;16.60;96.30;;;;;;5123677;27;20047;-75
2022/07/02 00:28:41;;;;;;;1.35;0.70;;;16.60;96.40;;;;;;5126611;27;20088;-75
2022/07/02 00:31:07;;;;;;;4.05;0.90;;;16.60;96.40;;;;;;5120638;27;21906;-75
2022/07/02 00:33:37;;;;;;;1.92;0.88;;;16.60;96.40;;;;;;5125176;27;20043;-75
2022/07/02 00:36:03;;;;;;;2.72;1.08;;;16.60;96.50;;;;;;5121251;27;20043;-75
2022/07/02 00:38:29;;;;;;;2.30;1.17;;;16.50;96.50;;;;;;5121924;27;20047;-75
2022/07/02 00:40:56;;;;;;;1.70;1.08;;;16.50;96.50;;;;;;5119411;27;20505;-74
2022/07/02 00:43:22;;;;;;;1.63;1.02;;;16.50;96.60;;;;;;5123604;27;20095;-75
2022/07/02 00:45:49;;;;;;;3.05;1.10;;;16.50;96.70;;;;;;5123579;27;20070;-74
2022/07/02 00:48:14;;;;;;;1.80;1.20;;;16.50;96.70;;;;;;5124156;27;20039;-75
2022/07/02 00:50:40;;;;;;;1.85;1.05;;;16.40;96.80;;;;;;5121423;27;20039;-76
2022/07/02 00:53:06;;;;;;;5.18;1.27;;;16.40;96.90;;;;;;5121837;27;20968;-75
2022/07/02 00:55:32;;;;;;;3.65;1.20;;;16.40;97.00;;;;;;5122189;27;20050;-75
2022/07/02 00:57:58;;;;;;;1.88;1.10;;;16.40;97.10;;;;;;5118700;27;20140;-75
2022/07/02 01:00:25;;;;;;;2.90;0.98;;;16.40;97.20;;;;;;5122679;27;20047;-75
2022/07/02 01:02:55;;;;;;;2.70;1.50;;;16.40;97.30;;;;;;5120967;27;20043;-75
2022/07/02 01:05:22;;;;;;;3.17;1.40;;;16.30;97.40;;;;;;5121669;27;20059;-75
2022/07/02 01:10:16;;;;;;;2.50;1.40;;;16.30;97.50;;;;;;5123274;27;20047;-75
2022/07/02 01:10:44;;;;;;;3.35;1.20;;;16.30;97.60;;;;;;5119788;27;20039;-75
2022/07/02 01:13:12;;;;;;;1.77;1.10;;;16.30;97.70;;;;;;5121743;27;20043;-75
2022/07/02 01:15:39;;;;;;;2.20;1.30;;;16.20;97.70;;;;;;5121094;27;20529;-75
2022/07/02 01:18:05;;;;;;;3.30;1.30;;;16.20;97.80;;;;;;5124234;27;20045;-75
2022/07/02 01:20:31;;;;;;;2.42;1.00;;;16.20;97.90;;;;;;5120278;27;21647;-75
2022/07/02 01:22:57;;;;;;;1.92;1.23;;;16.20;98.00;;;;;;5121430;27;20089;-75
2022/07/02 01:25:22;;;;;;;2.00;1.17;;;16.20;98.10;;;;;;5121067;27;20040;-75
2022/07/02 01:27:48;;;;;;;3.47;1.40;;;16.20;98.20;;;;;;5121489;27;20063;-75
2022/07/02 01:30:14;;;;;;;7.00;1.17;;;16.10;98.30;;;;;;5121980;27;20137;-75
2022/07/02 01:32:40;;;;;;;3.08;1.30;;;16.10;98.30;;;;;;5118760;27;20051;-75
2022/07/02 01:35:11;;;;;;;1.50;1.08;;;16.10;98.50;;;;;;5122799;27;20032;-74
2022/07/02 01:37:40;;;;;;;2.75;1.25;;;16.10;98.60;;;;;;5120992;27;20043;-75
2022/07/02 01:40:07;;;;;;;2.40;1.25;;;16.00;98.70;;;;;;5124308;27;20032;-75
2022/07/02 01:42:33;;;;;;;2.10;1.00;;;16.10;98.80;;;;;;5121145;27;20039;-76
2022/07/02 01:44:59;;;;;;;1.98;1.17;;;16.10;98.90;;;;;;5122006;27;20062;-75
2022/07/02 01:47:24;;;;;;;1.20;0.85;;;16.00;98.90;;;;;;5121614;27;20122;-75
2022/07/02 01:49:50;;;;;;;2.10;0.98;;;16.00;98.90;;;;;;5119311;27;20036;-75
2022/07/02 01:52:17;;;;;;;5.68;1.77;;;16.00;99.00;;;;;;5121355;27;20141;-76
2022/07/02 01:54:43;;;;;;;1.55;1.00;;;16.00;99.00;;;;;;5121048;27;20046;-79
2022/07/02 01:57:09;;;;;;;2.83;1.17;;;16.00;99.10;;;;;;5122309;27;20608;-76
2022/07/02 01:59:35;;;;;;;1.42;0.95;;;15.90;99.20;;;;;;5120935;27;20043;-75
2022/07/02 02:02:02;;;;;;;1.88;0.95;;;15.90;99.20;;;;;;5119652;27;20050;-75
2022/07/02 02:04:28;;;;;;;2.10;1.05;;;15.90;99.30;;;;;;5122094;27;20046;-76
2022/07/02 02:06:54;;;;;;;2.17;1.10;;;15.80;99.40;;;;;;5120495;27;20060;-76
2022/07/02 02:09:20;;;;;;;2.22;1.00;;;15.80;99.60;;;;;;5123140;27;20122;-76
2022/07/02 02:11:46;;;;;;;2.00;1.10;;;15.80;99.70;;;;;;5122095;27;20114;-75
2022/07/02 02:14:12;;;;;;;1.60;0.82;;;15.80;99.80;;;;;;5121527;27;20047;-75
2022/07/02 02:16:38;;;;;;;3.97;1.35;;;15.80;99.80;;;;;;5120971;27;20131;-75
2022/07/02 02:19:05;;;;;;;3.17;1.52;;;15.80;99.90;;;;;;5121661;27;20133;-75
2022/07/02 02:21:31;;;;;;;1.98;0.90;;;15.80;99.90;;;;;;5116830;27;20488;-75
2022/07/02 02:23:58;;;;;;;2.17;1.08;;;15.70;99.90;;;;;;5122304;27;20039;-75
2022/07/02 02:26:24;;;;;;;2.42;1.20;;;15.70;99.90;;;;;;5120558;27;20043;-75
2022/07/02 02:28:50;;;;;;;2.92;1.08;;;15.70;99.90;;;;;;5118724;27;20094;-75
2022/07/02 02:31:16;;;;;;;4.13;1.35;;;15.60;99.90;;;;;;5117876;27;20044;-75
2022/07/02 02:33:42;;;;;;;3.42;1.17;;;15.60;99.90;;;;;;5120788;27;20039;-75
2022/07/02 02:36:08;;;;;;;2.17;1.38;;;15.60;99.90;;;;;;5120029;27;20035;-75
2022/07/02 02:38:37;;;;;;;1.58;1.30;;;15.60;99.90;;;;;;5119411;27;20036;-75
2022/07/02 02:41:07;;;;;;;4.20;1.10;;;15.70;99.90;;;;;;5121555;27;20574;-74
2022/07/02 02:43:37;;;;;;;6.35;1.85;;;15.60;99.90;;;;;;5116852;27;20039;-74
2022/07/02 02:46:05;;;;;;;5.07;1.92;;;15.60;99.90;;;;;;5120238;27;20039;-75
2022/07/02 02:48:31;;;;;;;3.20;1.02;;;15.60;99.90;;;;;;5104541;27;20521;-75
2022/07/02 02:50:58;;;;;;;2.40;1.38;;;15.50;99.90;;;;;;5118160;27;20043;-74
2022/07/02 02:53:24;;;;;;;3.08;1.00;;;15.50;99.90;;;;;;5116899;27;20051;-74
2022/07/02 02:55:50;;;;;;;1.60;0.95;;;15.50;99.90;;;;;;5119806;27;20043;-74
2022/07/02 02:58:16;;;;;;;1.83;1.20;;;15.50;99.90;;;;;;5123328;27;20331;-74
2022/07/02 03:00:42;;;;;;;2.33;1.23;;;15.50;99.90;;;;;;5120186;27;20039;-75
2022/07/02 03:03:08;;;;;;;2.10;1.15;;;15.50;99.90;;;;;;5120038;27;20048;-74
2022/07/02 03:05:33;;;;;;;1.90;1.10;;;15.40;99.90;;;;;;5118726;27;20051;-74
2022/07/02 03:07:59;;;;;;;4.53;1.17;;;15.50;99.90;;;;;;5122539;27;20065;-75
2022/07/02 03:10:25;;;;;;;1.42;1.00;;;15.50;99.90;;;;;;5121577;27;20105;-75
2022/07/02 03:12:51;;;;;;;2.00;0.93;;;15.50;99.90;;;;;;5119180;27;20532;-75
2022/07/02 03:15:17;;;;;;;2.67;1.08;;;15.50;99.90;;;;;;5120062;27;20039;-75
2022/07/02 03:17:43;;;;;;;4.35;1.05;;;15.40;99.90;;;;;;5117322;27;20564;-75
2022/07/02 03:20:09;;;;;;;1.70;0.90;;;15.40;99.90;;;;;;5119261;27;20164;-75
2022/07/02 03:22:35;;;;;;;2.60;0.95;;;15.40;99.90;;;;;;5120665;27;20039;-75
2022/07/02 03:25:00;;;;;;;1.58;1.08;;;15.40;99.90;;;;;;5106943;27;20869;-75
2022/07/02 03:27:26;;;;;;;2.88;1.02;;;15.30;99.90;;;;;;5124544;27;20137;-75
2022/07/02 03:29:52;;;;;;;2.45;1.08;;;15.30;99.90;;;;;;5127580;27;20044;-75
2022/07/02 03:32:19;;;;;;;2.03;1.13;;;15.30;99.90;;;;;;5120186;27;20035;-75
2022/07/02 03:34:44;;;;;;;1.70;1.02;;;15.30;99.90;;;;;;5120700;27;20035;-75
2022/07/02 03:37:10;;;;;;;5.65;1.20;;;15.30;99.90;;;;;;5121632;27;20827;-75
2022/07/02 03:39:36;;;;;;;2.08;1.58;;;15.30;99.90;;;;;;5121351;27;20127;-75
2022/07/02 03:42:02;;;;;;;1.92;1.50;;;15.40;99.90;;;;;;5123652;27;20079;-76
2022/07/02 03:44:28;;;;;;;3.20;1.52;;;15.30;99.90;;;;;;5125119;27;20638;-75
2022/07/02 03:46:53;;;;;;;3.72;1.20;;;15.30;99.90;;;;;;5125806;27;20066;-75
2022/07/02 03:49:19;;;;;;;1.08;0.90;;;15.20;99.90;;;;;;5123187;27;20566;-75
2022/07/02 03:51:45;;;;;;;1.27;1.02;;;15.20;99.90;;;;;;5122755;27;20129;-75
2022/07/02 03:54:10;;;;;;;3.35;1.23;;;15.20;99.90;;;;;;5125296;27;20035;-75
2022/07/02 03:56:36;;;;;;;0.88;0.73;;;15.20;99.90;;;;;;5123341;27;20543;-75
2022/07/02 03:59:02;;;;;;;2.42;1.85;;;15.20;99.90;;;;;;5124959;27;20051;-75
2022/07/02 04:01:28;;;;;;;2.63;1.33;;;15.10;99.90;;;;;;5123783;27;20040;-76
2022/07/02 04:03:54;;;;;;;2.35;1.20;;;15.20;99.90;;;;;;5121702;27;20058;-75
2022/07/02 04:06:19;;;;;;;2.08;1.20;;;15.20;99.90;;;;;;5121220;27;20802;-75
2022/07/02 04:08:45;;;;;;;2.53;1.20;;;15.20;99.90;;;;;;5122442;27;20040;-75
2022/07/02 04:11:11;;;;;;;2.55;1.23;;;15.10;99.90;;;;;;5120715;27;20426;-75
2022/07/02 04:13:36;;;;;;;2.15;1.30;;;15.10;99.90;;;;;;5106163;27;20150;-74
2022/07/02 04:16:02;;;;;;;2.72;1.27;;;15.10;99.90;;;;;;5125440;27;20046;-75
2022/07/02 04:18:28;;;;;;;2.72;0.93;;;15.10;99.90;;;;;;5121060;27;20520;-75
2022/07/02 04:20:54;;;;;;;5.18;1.33;;;15.10;99.90;;;;;;5121795;27;20047;-75
2022/07/02 04:23:20;;;;;;;1.52;0.80;;;15.10;99.90;;;;;;5123460;27;20043;-75
2022/07/02 04:25:46;;;;;;;2.20;1.42;;;15.10;99.90;;;;;;5123068;27;20420;-75
2022/07/02 04:28:12;;;;;;;2.67;1.20;;;15.20;99.90;;;;;;5120576;27;20537;-75
2022/07/02 04:30:38;;;;;;;2.17;1.10;;;15.10;99.90;;;;;;5125841;27;20036;-75
2022/07/02 04:33:03;;;;;;;3.33;0.82;;;15.10;99.90;;;;;;5120461;27;20044;-75
2022/07/02 04:35:30;;;;;;;2.22;1.15;;;15.10;99.90;;;;;;5123350;27;20444;-75
2022/07/02 04:37:58;;;;;;;2.95;0.93;;;15.10;99.90;;;;;;5105670;27;20032;-75
2022/07/02 04:40:24;;;;;;;2.10;0.98;;;15.10;99.90;;;;;;5122235;27;20036;-75
2022/07/02 04:42:50;;;;;;;2.30;1.10;;;15.10;99.90;;;;;;5122129;27;20048;-75
2022/07/02 04:45:16;;;;;;;2.58;1.35;;;15.10;99.90;;;;;;5121647;27;20607;-75
2022/07/02 04:47:42;;;;;;;1.45;0.70;;;15.10;99.90;;;;;;5124141;27;20118;-75
2022/07/02 04:50:08;;;;;;;2.42;1.23;;;15.20;99.90;;;;;;5119035;27;20045;-74
2022/07/02 04:52:34;;;;;;;2.35;1.10;;;15.20;99.90;;;;;;5121393;27;20582;-75
2022/07/02 04:54:59;;;;;;;1.73;1.02;;;15.20;99.90;;;;;;5123909;27;20039;-75
2022/07/02 04:57:25;;;;;;;3.72;1.70;;;15.20;99.90;;;;;;5120635;27;20043;-75
2022/07/02 04:59:51;;;;;;;1.80;0.95;;;15.20;99.90;;;;;;5124824;27;20138;-75
2022/07/02 05:02:19;;;;;;;3.97;1.10;;;15.20;99.90;;;;;;5122188;27;20032;-75
2022/07/02 05:04:45;;;;;;;3.65;1.00;;;15.20;99.90;;;;;;5123182;27;20103;-75
2022/07/02 05:07:11;;;;;;;3.45;1.55;;;15.20;99.90;;;;;;5122134;27;20493;-75
2022/07/02 05:09:36;;;;;;;1.83;1.17;;;15.20;99.90;;;;;;5121703;27;20036;-74
2022/07/02 05:12:03;;;;;;;1.67;0.98;;;15.30;99.90;;;;;;5121992;27;20039;-75
2022/07/02 05:14:29;;;;;;;4.53;1.75;;;15.30;99.90;;;;;;5121900;27;20039;-75
2022/07/02 05:16:55;;;;;;;2.25;1.17;;;15.30;99.90;;;;;;5122069;27;20032;-74
2022/07/02 05:19:21;;;;;;;12.57;2.55;;;15.30;99.90;;;;;;5123292;27;20812;-75
2022/07/02 05:21:46;;;;;;;1.60;0.82;;;15.30;99.90;;;;;;5120528;27;20035;-75
2022/07/02 05:24:12;;;;;;;2.42;1.10;;;15.30;99.90;;;;;;5122705;27;20043;-75
2022/07/02 05:26:38;;;;;;;2.55;0.95;;;15.40;99.90;;;;;;5121417;27;20068;-75
2022/07/02 05:29:04;;;;;;;1.73;0.95;;;15.30;99.90;;;;;;5121425;27;20048;-74
2022/07/02 05:31:29;;;;;;;2.17;1.10;;;15.40;99.90;;;;;;5123116;27;20044;-75
2022/07/02 05:33:55;;;;;;;3.10;1.15;;;15.40;99.90;;;;;;5124705;27;20047;-75
2022/07/02 05:36:21;;;;;;;2.13;0.90;;;15.40;99.90;;;;;;5124738;27;20027;-75
2022/07/02 05:38:47;;;;;;;1.33;1.20;;;15.40;99.90;;;;;;5119047;27;20051;-75
2022/07/02 05:41:13;;;;;;;1.90;1.17;;;15.50;99.90;;;;;;5120798;27;20039;-75
2022/07/02 05:43:39;;;;;;;2.90;0.82;;;15.50;99.90;;;;;;5121910;27;20126;-76
2022/07/02 05:46:04;;;;;;;3.00;1.05;;;15.50;99.90;;;;;;5122011;27;20437;-75
2022/07/02 05:48:30;;;;;;;3.95;1.33;;;15.50;99.90;;;;;;5123664;27;20185;-74
2022/07/02 05:50:56;;;;;;;4.88;1.85;;;15.50;99.90;;;;;;5123491;27;22319;-74
2022/07/02 05:53:22;;;;;;;1.73;1.15;;;15.60;99.90;;;;;;5117659;27;20043;-74
2022/07/02 05:55:48;;;;;;;1.70;0.75;;;15.60;99.90;;;;;;5118425;27;20084;-75
2022/07/02 05:58:14;;;;;;;1.45;0.90;;;15.60;99.90;;;;;;5120313;27;20100;-75
2022/07/02 06:00:39;;;;;;;3.45;1.25;;;15.70;99.90;;;;;;5119711;27;20102;-74
2022/07/02 06:03:05;;;;;;;1.35;1.10;;;15.70;99.90;;;;;;5120476;27;20048;-74
2022/07/02 06:08:26;;;;;;;3.95;1.00;;;15.70;99.90;;;;;;5066757;27;20550;-75
2022/07/02 06:10:57;;;;;;;1.95;0.90;;;15.70;99.90;;;;;;5117558;27;20039;-75
2022/07/02 06:13:23;;;;;;;0.65;0.60;;;15.70;99.90;;;;;;5120223;27;20043;-74
2022/07/02 06:15:49;;;;;;;3.58;1.38;;;15.80;99.90;;;;;;5118340;27;20137;-75
2022/07/02 06:18:14;;;;;;;2.80;0.77;;;15.80;99.90;;;;;;5120870;27;20050;-76
2022/07/02 06:20:40;;;;;;;3.70;0.85;;;15.80;99.90;;;;;;5120078;27;20552;-76
2022/07/02 06:23:06;;;;;;;1.23;0.70;;;15.80;99.90;;;;;;5119176;27;20044;-75
2022/07/02 06:25:33;;;;;;;1.15;0.75;;;15.80;99.90;;;;;;5116780;27;20192;-75
2022/07/02 06:27:59;;;;;;;0.75;0.70;;;15.90;99.90;;;;;;5122576;27;20039;-75
2022/07/02 06:30:25;;;;;;;4.57;1.20;;;15.90;99.90;;;;;;5119021;27;20681;-78
2022/07/02 06:32:51;;;;;;;0.85;0.70;;;15.90;99.90;;;;;;5116714;27;20043;-74
2022/07/02 06:35:17;;;;;;;2.85;0.50;;;15.90;99.90;;;;;;5121005;27;20504;-75
2022/07/02 06:37:43;;;;;;;4.80;0.80;;;16.00;99.90;;;;;;5116761;27;21702;-74
2022/07/02 06:40:09;;;;;;;3.92;0.95;;;16.00;99.90;;;;;;5121076;27;20614;-79
2022/07/02 06:42:35;;;;;;;3.13;1.17;;;16.00;99.90;;;;;;5119834;27;20048;-75
2022/07/02 06:45:02;;;;;;;1.77;0.88;;;16.00;99.90;;;;;;5119348;27;20473;-75
2022/07/02 06:47:29;;;;;;;1.13;0.57;;;16.10;99.90;;;;;;5120202;27;20035;-74
2022/07/02 06:49:57;;;;;;;1.20;0.73;;;16.10;99.90;;;;;;5119190;27;20504;-74
2022/07/02 06:52:23;;;;;;;1.40;0.80;;;16.10;99.90;;;;;;5121089;27;20054;-74
2022/07/02 06:54:49;;;;;;;1.23;0.82;;;16.10;99.90;;;;;;5119158;27;20079;-75
2022/07/02 06:57:14;;;;;;;1.85;0.70;;;16.20;99.90;;;;;;5119995;27;20131;-74
2022/07/02 06:59:40;;;;;;;2.35;1.55;;;16.20;99.90;;;;;;5119300;27;20286;-74
2022/07/02 07:02:06;;;;;;;0.93;0.65;;;16.20;99.90;;;;;;5140946;27;20126;-75
2022/07/02 07:04:33;;;;;;;1.30;0.90;;;16.20;99.90;;;;;;5122413;27;20097;-74
2022/07/02 07:07:03;;;;;;;5.38;2.55;;;16.30;99.90;;;;;;5123901;27;20805;-75
2022/07/02 07:09:29;;;;;;;1.55;0.70;;;16.30;99.90;;;;;;5127385;27;20043;-74
2022/07/02 07:11:56;;;;;;;1.67;0.60;;;16.30;99.90;;;;;;5124424;27;20445;-74
2022/07/02 07:14:22;;;;;;;6.93;1.60;;;16.40;99.90;;;;;;5110723;27;20436;-74
2022/07/02 07:16:48;;;;;;;4.65;1.38;;;16.40;99.90;;;;;;5125371;27;20039;-75
2022/07/02 07:19:14;;;;;;;1.33;0.75;;;16.40;99.90;;;;;;5126530;27;20036;-74
2022/07/02 07:21:42;;;;;;;2.05;1.73;;;16.50;99.90;;;;;;5123287;27;20428;-75
2022/07/02 07:24:08;;;;;;;1.40;0.63;;;16.50;99.90;;;;;;5116824;27;20043;-75
2022/07/02 07:26:35;;;;;;;0.75;0.75;;;16.50;99.90;;;;;;5115165;27;20066;-74
2022/07/02 07:29:01;;;;;;;0.75;0.75;;;16.50;99.90;;;;;;5121530;27;20117;-74
2022/07/02 07:31:30;;;;;;;0.70;0.70;;;16.60;99.90;;;;;;5123908;27;20142;-74
2022/07/02 07:33:56;;;;;;;4.05;1.08;;;16.60;99.90;;;;;;5123499;27;20529;-74
2022/07/02 07:36:24;;;;;;;1.88;0.77;;;16.70;99.90;;;;;;5122132;27;20067;-75
2022/07/02 07:38:51;;;;;;;1.75;0.98;;;16.70;99.90;;;;;;5120291;27;20131;-74
2022/07/02 07:41:18;;;;;;;2.40;0.90;;;16.70;99.90;;;;;;5125215;27;20052;-75
2022/07/02 07:43:44;;;;;;;1.85;0.80;;;16.70;99.90;;;;;;5125393;27;20670;-75
2022/07/02 07:46:10;;;;;;;3.33;1.83;;;16.80;99.90;;;;;;5120426;27;20591;-75
2022/07/02 07:48:36;;;;;;;5.35;0.77;;;16.80;99.90;;;;;;5127865;27;20118;-74
2022/07/02 07:51:02;;;;;;;0.73;0.70;;;16.80;99.90;;;;;;5124920;27;20043;-73
2022/07/02 07:53:28;;;;;;;1.13;0.80;;;16.90;99.90;;;;;;5120133;27;20085;-75
2022/07/02 07:55:54;;;;;;;0.90;0.68;;;16.90;99.90;;;;;;5124116;27;20069;-75
2022/07/02 07:58:20;;;;;;;3.25;0.85;;;16.90;99.90;;;;;;5129009;27;20032;-75
2022/07/02 08:00:46;;;;;;;2.42;0.60;;;16.90;99.90;;;;;;5118604;27;20048;-74
2022/07/02 08:03:17;;;;;;;2.38;0.75;;;17.00;99.90;;;;;;5127084;27;20040;-78
2022/07/02 08:05:47;;;;;;;6.25;1.10;;;17.00;99.90;;;;;;5125188;27;20048;-74
2022/07/02 08:08:13;;;;;;;1.33;0.75;;;17.00;99.90;;;;;;5126164;27;20790;-75
2022/07/02 08:10:39;;;;;;;1.63;1.00;;;17.10;99.90;;;;;;5125408;27;20588;-74
2022/07/02 08:13:05;;;;;;;2.53;0.90;;;16.90;99.90;;;;;;5118722;27;20112;-75
2022/07/02 08:15:31;;;;;;;1.50;0.77;;;17.10;99.90;;;;;;5123191;27;20136;-74
2022/07/02 08:17:57;;;;;;;0.73;0.57;;;16.90;99.90;;;;;;5126432;27;20049;-74
2022/07/02 08:20:23;;;;;;;3.67;0.75;;;17.20;99.90;;;;;;5115979;27;20135;-74
2022/07/02 08:22:50;;;;;;;1.77;0.65;;;17.20;99.90;;;;;;5121482;27;20351;-74
2022/07/02 08:25:16;;;;;;;1.42;0.80;;;17.30;99.90;;;;;;5117299;27;20044;-74
2022/07/02 08:27:43;;;;;;;1.77;0.98;;;17.30;99.90;;;;;;5122755;27;20428;-76
2022/07/02 08:30:09;;;;;;;1.02;0.50;;;17.30;99.90;;;;;;5118817;27;20048;-76
2022/07/02 08:32:36;;;;;;;0.98;0.70;;;17.30;99.90;;;;;;5121436;27;20047;-76
2022/07/02 08:35:03;;;;;;;2.30;0.80;;;17.30;99.90;;;;;;5119747;27;20039;-76
2022/07/02 08:37:30;;;;;;;0.90;0.70;;;17.40;99.90;;;;;;5120088;27;20070;-76
2022/07/02 08:39:56;;;;;;;3.22;1.50;;;17.40;99.90;;;;;;5122562;27;20105;-76
2022/07/02 08:42:29;;;;;;;1.42;0.77;;;17.40;99.90;;;;;;5121704;27;20140;-76
2022/07/02 08:45:00;;;;;;;1.48;0.90;;;17.50;99.90;;;;;;5116859;27;20452;-76
2022/07/02 08:47:29;;;;;;;2.13;0.70;;;17.50;99.90;;;;;;5118641;27;20070;-76
2022/07/02 08:49:57;;;;;;;1.23;0.55;;;17.50;99.90;;;;;;5103725;27;20142;-76
2022/07/02 08:52:25;;;;;;;1.27;0.68;;;17.60;99.90;;;;;;5110386;27;20709;-76
2022/07/02 08:54:52;;;;;;;1.90;0.50;;;17.60;99.90;;;;;;5119875;27;20047;-76
2022/07/02 08:57:21;;;;;;;2.80;0.75;;;17.60;99.90;;;;;;5120644;27;20031;-76
2022/07/02 08:59:47;;;;;;;0.35;0.30;;;17.60;99.90;;;;;;5120122;27;20808;-76
2022/07/02 09:02:14;;;;;;;2.15;0.73;;;17.60;99.90;;;;;;5122111;27;21999;-76
2022/07/02 09:04:47;;;;;;;1.02;0.80;;;17.70;99.90;;;;;;5120361;27;20043;-76
2022/07/02 09:07:15;;;;;;;2.50;1.25;;;17.70;99.90;;;;;;5120797;27;20040;-76
2022/07/02 09:09:42;;;;;;;2.00;0.60;;;17.70;99.90;;;;;;5117351;27;20137;-75
2022/07/02 09:12:12;;;;;;;0.95;0.60;;;17.70;99.90;;;;;;5120237;27;20214;-76
2022/07/02 09:14:39;;;;;;;2.38;0.98;;;17.70;99.90;;;;;;5119299;27;20043;-75
2022/07/02 09:17:06;;;;;;;0.52;0.45;;;17.80;99.90;;;;;;5118146;27;20050;-76
2022/07/02 09:19:34;;;;;;;1.60;1.13;;;17.80;99.90;;;;;;5123459;27;20089;-76
2022/07/02 09:22:00;;;;;;;1.02;0.70;;;17.80;99.90;;;;;;5122824;27;20039;-76
2022/07/02 09:24:39;;;;;;;1.52;0.50;;;17.90;99.90;;;;;;5114040;27;20063;-75
2022/07/02 09:27:07;;;;;;;1.25;0.70;;;17.90;99.90;;;;;;5118888;27;20050;-76
2022/07/02 09:29:52;;;;;;;3.28;0.77;;;17.90;99.90;;;;;;5121864;27;20044;-75
2022/07/02 09:32:19;;;;;;;1.50;0.80;;;18.00;99.90;;;;;;5119094;27;20114;-76
2022/07/02 09:34:50;;;;;;;0.68;0.50;;;18.00;99.90;;;;;;5119470;27;20050;-76
2022/07/02 09:37:21;;;;;;;0.77;0.50;;;18.00;99.90;;;;;;5116133;27;20055;-76
2022/07/02 09:39:49;;;;;;;0.95;0.55;;;18.10;99.90;;;;;;5122398;27;20035;-76
2022/07/02 09:42:33;;;;;;;3.33;0.95;;;18.00;99.90;;;;;;5122868;27;20050;-77
2022/07/02 09:45:02;;;;;;;0.85;0.60;;;18.10;99.90;;;;;;5113764;27;20551;-76
2022/07/02 09:47:41;;;;;;;0.50;0.50;;;18.10;99.90;;;;;;5121252;27;20846;-76
2022/07/02 09:50:11;;;;;;;0.88;0.60;;;18.10;99.90;;;;;;5120360;27;21849;-76
2022/07/02 09:52:50;;;;;;;0.52;0.52;;;18.20;99.90;;;;;;5121766;27;20046;-76
2022/07/02 09:55:30;;;;;;;0.55;0.55;;;18.20;99.90;;;;;;5122315;27;20043;-76
2022/07/02 09:58:01;;;;;;;1.00;0.47;;;18.20;99.90;;;;;;5120124;27;20038;-76
2022/07/02 10:00:30;;;;;;;4.07;1.90;;;18.30;99.90;;;;;;5122634;27;20043;-76
2022/07/02 10:02:58;;;;;;;1.80;0.60;;;18.40;99.90;;;;;;5121396;27;20044;-76
2022/07/02 10:05:33;;;;;;;0.98;0.60;;;18.40;99.90;;;;;;5123312;27;20051;-76
2022/07/02 10:08:01;;;;;;;1.30;0.70;;;18.50;99.90;;;;;;5124412;27;20043;-76
2022/07/02 10:10:38;;;;;;;2.88;1.00;;;18.50;99.90;;;;;;5125329;27;20039;-76
2022/07/02 10:13:07;;;;;;;1.58;0.80;;;18.60;99.90;;;;;;5124885;27;20139;-76
2022/07/02 10:15:36;;;;;;;2.17;0.68;;;18.70;99.90;;;;;;5122994;27;20039;-76
2022/07/02 10:18:05;;;;;;;1.10;0.57;;;18.70;99.90;;;;;;5123635;27;20039;-76
2022/07/02 10:20:33;;;;;;;4.50;1.02;;;18.80;99.90;;;;;;5125250;27;21031;-77
2022/07/02 10:23:04;;;;;;;2.42;0.90;;;18.80;99.90;;;;;;5122681;27;20157;-76
2022/07/02 10:25:31;;;;;;;4.18;1.30;;;18.90;99.90;;;;;;5125549;27;20039;-76
2022/07/02 10:27:57;;;;;;;1.65;1.00;;;19.10;99.90;;;;;;5123821;27;20120;-77
2022/07/02 10:30:31;;;;;;;3.15;0.65;;;19.10;99.90;;;;;;5118311;27;20047;-77
2022/07/02 10:33:09;;;;;;;1.13;0.60;;;19.10;99.90;;;;;;5124438;27;20044;-76
2022/07/02 10:35:37;;;;;;;2.17;0.60;;;19.10;99.90;;;;;;5123813;27;20054;-76
2022/07/02 10:38:03;;;;;;;1.30;1.10;;;19.10;99.40;;;;;;5123460;27;20044;-76
2022/07/02 10:40:29;;;;;;;4.53;1.40;;;19.10;99.10;;;;;;5122653;27;20429;-76
2022/07/02 10:42:59;;;;;;;1.30;0.70;;;19.20;98.80;;;;;;5119939;27;20040;-76
2022/07/02 10:45:28;;;;;;;0.50;0.50;;;19.20;98.80;;;;;;5124284;27;20354;-76
2022/07/02 10:48:00;;;;;;;1.13;0.80;;;19.20;98.70;;;;;;5124341;27;20040;-77
2022/07/02 10:50:40;;;;;;;;;;;19.20;98.60;;;;;;5126435;27;20513;-76
2022/07/02 10:53:11;;;;;;;1.23;1.13;;;19.20;98.40;;;;;;5123023;27;19958;-79
2022/07/02 10:55:38;;;;;;;1.27;0.80;;;19.30;98.20;;;;;;5121950;27;20512;-78
2022/07/02 10:58:06;;;;;;;1.33;0.82;;;19.30;98.00;;;;;;5123688;27;20126;-77
2022/07/02 11:00:40;;;;;;;3.45;1.10;;;19.30;97.80;;;;;;5125257;27;20229;-76
2022/07/02 11:03:21;;;;;;;1.75;1.00;;;19.30;97.50;;;;;;5122173;27;20044;-76
2022/07/02 11:06:14;;;;;;;0.52;0.52;;;19.30;97.30;;;;;;5121584;27;20172;-76
2022/07/02 11:08:47;;;;;;;0.82;0.75;;;19.30;97.20;;;;;;5121899;27;20043;-76
2022/07/02 11:11:22;;;;;;;3.20;1.35;;;19.30;97.10;;;;;;5121727;27;20117;-76
2022/07/02 11:14:06;;;;;;;1.60;0.90;;;19.40;96.90;;;;;;5123891;27;20092;-77
2022/07/02 11:16:39;;;;;;;1.13;0.70;;;19.40;96.80;;;;;;5123996;27;20044;-76
2022/07/02 11:19:13;;;;;;;1.80;0.75;;;19.50;96.90;;;;;;5116785;27;20627;-78
2022/07/02 11:21:40;;;;;;;1.85;0.80;;;19.60;96.80;;;;;;5118735;27;20087;-88
2022/07/02 11:24:07;;;;;;;1.27;0.70;;;19.60;96.70;;;;;;5124029;27;20819;-84
2022/07/02 11:26:33;;;;;;;1.02;0.57;;;19.70;96.60;;;;;;5118553;27;20066;-88
2022/07/02 11:29:05;;;;;;;0.77;0.55;;;19.70;96.40;;;;;;5119457;27;20532;-87
2022/07/02 11:31:35;;;;;;;1.75;0.60;;;19.70;96.40;;;;;;5123123;27;20040;-82
2022/07/02 11:34:00;;;;;;;1.00;0.57;;;19.70;96.40;;;;;;5121357;27;20529;-85
2022/07/02 11:36:26;;;;;;;0.68;0.47;;;19.80;96.40;;;;;;5118841;27;20587;-85
2022/07/02 11:38:53;;;;;;;1.08;0.70;;;19.70;96.40;;;;;;5119735;27;20043;-78
2022/07/02 11:41:25;;;;;;;1.08;0.63;;;19.80;96.40;;;;;;5119752;27;20032;-79
2022/07/02 11:43:57;;;;;;;5.10;0.80;;;19.80;96.40;;;;;;5118568;27;20050;-81
2022/07/02 11:46:25;;;;;;;0.82;0.52;;;19.80;96.20;;;;;;5119988;27;20042;-80
2022/07/02 11:48:52;;;;;;;0.73;0.70;;;19.70;96.20;;;;;;5123117;27;20055;-78
2022/07/02 11:51:21;;;;;;;1.45;0.70;;;19.70;95.90;;;;;;5124190;27;20039;-78
2022/07/02 11:53:57;;;;;;;7.95;1.50;;;19.80;95.80;;;;;;5125342;27;20039;-78
2022/07/02 11:56:23;;;;;;;3.80;0.98;;;19.80;95.80;;;;;;5123468;27;20604;-79
2022/07/02 11:58:49;;;;;;;6.22;1.10;;;19.80;95.90;;;;;;5118720;27;20162;-79
2022/07/02 12:01:28;;;;;;;2.47;1.65;;;19.80;95.90;;;;;;5125814;27;20122;-79
2022/07/02 12:04:02;;;;;;;1.50;0.90;;;19.80;95.80;;;;;;5125615;27;20047;-87
2022/07/02 12:06:30;;;;;;;1.65;0.75;;;19.80;95.70;;;;;;5121316;27;20059;-85
2022/07/02 12:08:58;;;;;;;0.75;0.75;;;19.80;95.60;;;;;;5118916;27;20081;-77
2022/07/02 12:11:24;;;;;;;112.60;37.42;;;19.90;95.40;;;;;;5121283;27;20070;-77
2022/07/02 12:13:51;;;;;;;222.18;72.97;;;19.90;95.30;;;;;;5118885;27;20044;-76
2022/07/02 12:16:20;;;;;;;317.25;126.22;;;19.90;95.30;;;;;;5120687;27;20032;-76
2022/07/02 12:18:59;;;;;;;320.40;109.53;;;20.00;95.40;;;;;;5122406;27;20835;-76
2022/07/02 12:21:40;;;;;;;271.55;87.22;;;20.00;95.40;;;;;;5123811;27;20051;-76
2022/07/02 12:24:27;;;;;;;148.80;51.40;;;20.00;95.20;;;;;;5123212;27;20043;-76
2022/07/02 12:26:54;;;;;;;24.55;10.30;;;20.10;95.00;;;;;;5121356;27;20118;-76
2022/07/02 12:32:13;;;;;;;3.47;1.80;;;20.20;94.50;;;;;;5125703;27;20067;-77
2022/07/02 12:34:48;;;;;;;6.07;1.75;;;20.20;94.10;;;;;;5125130;27;20035;-76
2022/07/02 12:37:37;;;;;;;7.45;3.58;;;20.10;93.80;;;;;;5124313;27;20562;-76
2022/07/02 12:40:04;;;;;;;16.52;7.70;;;20.20;93.80;;;;;;5124448;27;20131;-76
2022/07/02 12:42:35;;;;;;;14.48;6.90;;;20.20;93.90;;;;;;5127350;27;20471;-76
2022/07/02 12:45:06;;;;;;;13.55;5.47;;;20.20;94.00;;;;;;5125080;27;20044;-75
2022/07/02 12:47:38;;;;;;;5.80;3.47;;;20.30;94.00;;;;;;5127336;27;20044;-75
2022/07/02 12:50:14;;;;;;;2.30;1.10;;;20.30;93.90;;;;;;5138088;27;20543;-76
2022/07/02 12:52:49;;;;;;;2.38;1.02;;;20.30;93.50;;;;;;5124747;27;20131;-76
2022/07/02 12:55:28;;;;;;;3.70;1.52;;;20.30;93.40;;;;;;5120376;27;20447;-80